YKBN weather

Kooralbyn Airport
Queensland, Australia

Public forecast

Using degrees Celsius for public forecast. Weather courtesy of forecast.io.

METAR (pilot weather report)

Closest report is RAAF Base Amberley, 27.9 nm (51.7 km) NNW. Retrieved 2019/04/20 10:22 UTC (0 seconds ago):

YAMB 201022Z AUTO 14007KT 9000 SHRA SCT014 BKN029 OVC042 20/19 Q1022

TAF (pilot weather forecast)

Closest forecast is RAAF Base Amberley, 27.9 nm (51.7 km) NNW. Retrieved 2019/04/20 06:00 UTC (4 hours ago):

TAF YAMB 200458Z 2006/2024 12014KT 9999 -SHRA SCT025 BKN045 FM201000 14007KT 9999 -SHRA SCT015 BKN045 INTER 2006/2018 VRB15G25KT 3000 -SHRA BKN015